Terminal Aerodrome Forecast
Issued by NWS

Home | Current Version | Previous Version | Text Only | Print | Product List | Glossary On
Versions: 1 2 3 4 5 6 7 8 9 10 11 12
946
FTAK31 PAJN 222328
TAFAGY
TAF
PAGY 222328Z 2300/2324 03017G28KT P6SM OVC100
     FM231500 04011G21KT P6SM SCT050 OVC090
     FM232100 04010G21KT P6SM VCSH BKN050 OVC100
      AMD LTD TO CLD VIS AND WIND=

USA.gov is the U.S. government's official web portal to all federal, state and local government web resources and services.